Time;durP1;ratioP1;P1;durP2;ratioP2;P2;SDS_P1;SDS_P2;PMS_P1;PMS_P2;Temp;Humidity;BMP_temperature;BMP_pressure;BME280_temperature;BME280_humidity;BME280_pressure;Samples;Min_cycle;Max_cycle;Signal;HPM_P1;HPM_P2
2023/03/04 00:02:19;;;;;;;0.50;0.40;;;5.20;99.90;;;;;;5054728;28;20186;-78
2023/03/04 00:04:46;;;;;;;0.50;0.40;;;5.30;99.90;;;;;;5054332;28;20195;-78
2023/03/04 00:07:15;;;;;;;0.50;0.40;;;5.20;99.90;;;;;;5054801;28;20190;-79
2023/03/04 00:09:44;;;;;;;0.50;0.40;;;5.20;99.90;;;;;;5054137;28;20197;-77
2023/03/04 00:12:11;;;;;;;0.50;0.43;;;5.10;99.90;;;;;;5054302;28;20708;-78
2023/03/04 00:14:37;;;;;;;0.50;0.40;;;5.10;99.90;;;;;;5054071;28;20221;-78
2023/03/04 00:17:05;;;;;;;0.50;0.40;;;5.10;99.90;;;;;;5054383;28;20197;-78
2023/03/04 00:19:33;;;;;;;0.50;0.40;;;5.10;99.90;;;;;;5053940;28;20207;-77
2023/03/04 00:22:00;;;;;;;0.50;0.40;;;5.10;99.90;;;;;;5054190;28;20191;-78
2023/03/04 00:24:27;;;;;;;5.65;1.25;;;5.20;99.90;;;;;;5053763;28;20305;-77
2023/03/04 00:26:55;;;;;;;0.50;0.40;;;5.20;99.90;;;;;;5046044;28;20197;-78
2023/03/04 00:29:22;;;;;;;0.50;0.40;;;5.20;99.90;;;;;;5054082;28;20555;-77
2023/03/04 00:31:49;;;;;;;0.60;0.40;;;5.20;99.90;;;;;;5054114;28;20198;-77
2023/03/04 00:34:16;;;;;;;0.50;0.40;;;5.20;99.90;;;;;;5054423;28;20220;-78
2023/03/04 00:36:43;;;;;;;0.70;0.70;;;5.20;99.90;;;;;;5053196;28;20662;-78
2023/03/04 00:39:10;;;;;;;0.50;0.47;;;5.20;99.90;;;;;;5053435;28;20217;-78
2023/03/04 00:41:37;;;;;;;0.50;0.40;;;5.20;99.90;;;;;;5054037;28;20601;-77
2023/03/04 00:44:06;;;;;;;0.50;0.40;;;5.20;99.90;;;;;;5052716;28;20285;-78
2023/03/04 00:46:33;;;;;;;0.50;0.40;;;5.20;99.90;;;;;;5053914;28;20187;-78
2023/03/04 00:49:00;;;;;;;0.50;0.40;;;5.20;99.90;;;;;;5053652;28;20190;-78
2023/03/04 00:51:26;;;;;;;0.50;0.40;;;5.10;99.90;;;;;;5053392;28;20194;-79
2023/03/04 00:53:53;;;;;;;0.50;0.40;;;5.10;99.90;;;;;;5053593;28;20217;-79
2023/03/04 00:56:20;;;;;;;0.50;0.40;;;5.10;99.90;;;;;;5053636;28;20281;-78
2023/03/04 00:58:47;;;;;;;0.50;0.40;;;5.20;99.90;;;;;;5052918;28;20210;-78
2023/03/04 01:01:15;;;;;;;0.50;0.40;;;5.20;99.90;;;;;;5053656;28;20190;-79
2023/03/04 01:03:42;;;;;;;0.50;0.50;;;5.20;99.90;;;;;;5053378;28;20211;-77
2023/03/04 01:06:10;;;;;;;0.77;0.77;;;5.20;99.90;;;;;;5053636;28;20569;-79
2023/03/04 01:08:37;;;;;;;0.50;0.40;;;5.20;99.90;;;;;;5052815;28;20194;-78
2023/03/04 01:11:04;;;;;;;0.50;0.40;;;5.20;99.90;;;;;;5052968;28;20281;-79
2023/03/04 01:13:31;;;;;;;0.50;0.40;;;5.20;99.90;;;;;;5052671;28;20229;-79
2023/03/04 01:15:57;;;;;;;0.50;0.40;;;5.20;99.90;;;;;;5044723;28;20241;-78
2023/03/04 01:18:26;;;;;;;0.50;0.40;;;5.20;99.90;;;;;;5053206;28;20210;-78
2023/03/04 01:20:53;;;;;;;1.13;1.13;;;5.20;99.90;;;;;;5053217;28;20194;-78
2023/03/04 01:23:20;;;;;;;0.50;0.40;;;5.30;99.90;;;;;;5053074;28;20709;-79
2023/03/04 01:25:46;;;;;;;0.50;0.40;;;5.30;99.90;;;;;;5053217;28;20221;-77
2023/03/04 01:28:13;;;;;;;0.50;0.40;;;5.30;99.90;;;;;;5052824;28;20277;-78
2023/03/04 01:30:40;;;;;;;0.50;0.40;;;5.30;99.90;;;;;;5052870;28;20201;-79
2023/03/04 01:33:07;;;;;;;0.50;0.40;;;5.30;99.90;;;;;;5052816;28;20214;-78
2023/03/04 01:35:35;;;;;;;0.50;0.40;;;5.30;99.90;;;;;;5052879;28;20299;-77
2023/03/04 01:38:02;;;;;;;0.50;0.40;;;5.30;99.90;;;;;;5052749;28;20285;-77
2023/03/04 01:40:29;;;;;;;0.50;0.40;;;5.30;99.90;;;;;;5053463;28;20326;-78
2023/03/04 01:42:56;;;;;;;0.50;0.40;;;5.20;99.90;;;;;;5052151;28;20293;-78
2023/03/04 01:45:23;;;;;;;0.50;0.40;;;5.20;99.90;;;;;;5053715;28;20186;-78
2023/03/04 01:47:51;;;;;;;0.50;0.40;;;5.10;99.90;;;;;;5052648;28;20281;-78
2023/03/04 01:50:23;;;;;;;0.50;0.40;;;5.10;99.90;;;;;;5052989;28;20197;-78
2023/03/04 01:52:52;;;;;;;0.50;0.40;;;5.10;99.90;;;;;;5052956;28;20301;-79
2023/03/04 01:55:20;;;;;;;0.50;0.50;;;5.10;99.90;;;;;;5053471;28;20263;-78
2023/03/04 01:57:48;;;;;;;0.50;0.40;;;5.20;99.90;;;;;;5052631;28;20194;-78
2023/03/04 02:00:21;;;;;;;0.50;0.40;;;5.20;99.90;;;;;;5052955;28;20708;-78
2023/03/04 02:02:52;;;;;;;0.50;0.40;;;5.20;99.90;;;;;;5052916;28;20301;-78
2023/03/04 02:05:19;;;;;;;0.50;0.40;;;5.20;99.90;;;;;;5052786;28;20198;-78
2023/03/04 02:07:46;;;;;;;0.50;0.40;;;5.20;99.90;;;;;;5052606;28;20226;-78
2023/03/04 02:10:14;;;;;;;0.50;0.40;;;5.20;99.90;;;;;;5053466;28;20187;-78
2023/03/04 02:12:41;;;;;;;0.50;0.40;;;5.20;99.90;;;;;;5052660;28;20204;-78
2023/03/04 02:15:09;;;;;;;0.50;0.40;;;5.20;99.90;;;;;;5052688;28;20579;-78
2023/03/04 02:17:37;;;;;;;0.50;0.40;;;5.20;99.90;;;;;;5052459;28;20187;-77
2023/03/04 02:20:14;;;;;;;0.50;0.40;;;5.20;99.90;;;;;;5052351;28;20211;-78
2023/03/04 02:22:57;;;;;;;0.50;0.40;;;5.20;99.90;;;;;;5053264;28;20191;-78
2023/03/04 02:25:31;;;;;;;0.50;0.40;;;5.20;99.90;;;;;;5052780;28;20201;-77
2023/03/04 02:27:59;;;;;;;0.52;0.52;;;5.20;99.90;;;;;;5052268;28;20278;-78
2023/03/04 02:30:26;;;;;;;0.50;0.40;;;5.20;99.90;;;;;;5052451;28;20187;-77
2023/03/04 02:32:53;;;;;;;0.50;0.40;;;5.20;99.90;;;;;;5052898;28;20580;-79
2023/03/04 02:35:21;;;;;;;0.50;0.40;;;5.20;99.90;;;;;;5052438;28;20282;-78
2023/03/04 02:37:48;;;;;;;0.50;0.40;;;5.10;99.90;;;;;;5052718;28;20191;-78
2023/03/04 02:40:18;;;;;;;0.50;0.40;;;5.20;99.90;;;;;;5052522;28;20305;-77
2023/03/04 02:42:46;;;;;;;0.50;0.40;;;5.20;99.90;;;;;;5052130;28;20211;-78
2023/03/04 02:45:36;;;;;;;0.50;0.50;;;5.10;99.90;;;;;;5052372;28;20187;-77
2023/03/04 02:48:03;;;;;;;0.50;0.40;;;5.10;99.90;;;;;;5053218;28;20197;-78
2023/03/04 02:50:36;;;;;;;0.50;0.50;;;5.10;99.90;;;;;;5051991;28;20187;-78
2023/03/04 02:53:03;;;;;;;0.50;0.40;;;5.20;99.90;;;;;;5052196;28;20579;-78
2023/03/04 02:55:31;;;;;;;0.50;0.40;;;5.20;99.90;;;;;;5052412;28;20187;-76
2023/03/04 02:57:57;;;;;;;0.50;0.40;;;5.20;99.90;;;;;;5052236;28;20198;-78
2023/03/04 03:00:24;;;;;;;0.50;0.40;;;5.10;99.90;;;;;;5056066;28;20630;-79
2023/03/04 03:02:53;;;;;;;0.50;0.40;;;5.00;99.90;;;;;;5056138;28;20305;-78
2023/03/04 03:05:20;;;;;;;0.50;0.40;;;5.10;99.90;;;;;;5055882;28;20286;-78
2023/03/04 03:07:47;;;;;;;0.50;0.40;;;5.10;99.90;;;;;;5055781;28;20201;-78
2023/03/04 03:10:14;;;;;;;0.50;0.40;;;5.10;99.90;;;;;;5056071;28;20238;-79
2023/03/04 03:12:41;;;;;;;0.50;0.40;;;5.10;99.90;;;;;;5055751;28;20293;-78
2023/03/04 03:15:08;;;;;;;0.50;0.40;;;5.10;99.90;;;;;;5055384;28;20191;-79
2023/03/04 03:17:35;;;;;;;0.50;0.40;;;5.10;99.90;;;;;;5055764;28;20245;-78
2023/03/04 03:20:04;;;;;;;0.50;0.40;;;5.10;99.90;;;;;;5055308;28;20206;-79
2023/03/04 03:22:31;;;;;;;0.50;0.40;;;5.10;99.90;;;;;;5055279;28;20191;-78
2023/03/04 03:24:58;;;;;;;0.50;0.40;;;5.00;99.90;;;;;;5055352;28;20229;-78
2023/03/04 03:27:25;;;;;;;0.50;0.40;;;4.90;99.90;;;;;;5055888;28;20195;-78
2023/03/04 03:29:52;;;;;;;0.50;0.40;;;5.00;99.90;;;;;;5055122;28;20246;-78
2023/03/04 03:32:19;;;;;;;1.25;1.25;;;5.00;99.90;;;;;;5054937;28;20230;-79
2023/03/04 03:34:45;;;;;;;0.50;0.40;;;4.90;99.90;;;;;;5054914;28;20589;-77
2023/03/04 03:37:14;;;;;;;0.50;0.40;;;5.00;99.90;;;;;;5055256;28;20565;-78
2023/03/04 03:39:41;;;;;;;0.50;0.40;;;5.00;99.90;;;;;;5055138;28;20211;-78
2023/03/04 03:42:08;;;;;;;0.50;0.40;;;5.00;99.90;;;;;;5055403;28;20631;-78
2023/03/04 03:44:35;;;;;;;0.50;0.40;;;5.00;99.90;;;;;;5054821;28;20211;-78
2023/03/04 03:47:02;;;;;;;0.50;0.40;;;5.00;99.90;;;;;;5054798;28;20191;-79
2023/03/04 03:49:29;;;;;;;0.50;0.50;;;5.10;99.90;;;;;;5054851;28;20199;-78
2023/03/04 03:51:55;;;;;;;0.50;0.40;;;5.10;99.90;;;;;;5054906;28;20293;-79
2023/03/04 03:54:24;;;;;;;0.50;0.40;;;5.20;99.90;;;;;;5054669;28;20297;-79
2023/03/04 03:56:51;;;;;;;0.50;0.40;;;5.20;99.90;;;;;;5054476;28;20195;-78
2023/03/04 03:59:17;;;;;;;0.50;0.40;;;5.00;99.90;;;;;;5054786;28;20210;-79
2023/03/04 04:01:44;;;;;;;0.50;0.40;;;5.10;99.90;;;;;;5055270;28;20244;-78
2023/03/04 04:04:11;;;;;;;0.50;0.40;;;5.00;99.90;;;;;;5055060;28;20210;-78
2023/03/04 04:06:38;;;;;;;0.50;0.40;;;5.10;99.90;;;;;;5054819;28;20197;-78
2023/03/04 04:09:05;;;;;;;0.50;0.40;;;5.10;99.90;;;;;;5054700;28;20670;-78
2023/03/04 04:11:33;;;;;;;0.50;0.40;;;5.10;99.90;;;;;;5053808;28;20193;-78
2023/03/04 04:14:03;;;;;;;0.50;0.40;;;5.10;99.90;;;;;;5054661;28;20222;-78
2023/03/04 04:16:30;;;;;;;0.50;0.40;;;5.00;99.90;;;;;;5054881;28;20449;-76
2023/03/04 04:18:56;;;;;;;0.50;0.40;;;5.00;99.90;;;;;;5054876;28;20197;-78
2023/03/04 04:21:24;;;;;;;0.50;0.40;;;5.00;99.90;;;;;;5055340;28;20187;-78
2023/03/04 04:23:50;;;;;;;0.50;0.40;;;5.00;99.90;;;;;;5055077;28;20215;-79
2023/03/04 04:26:17;;;;;;;0.50;0.40;;;5.00;99.90;;;;;;5055705;28;20190;-78
2023/03/04 04:28:45;;;;;;;0.50;0.40;;;5.10;99.90;;;;;;5054554;28;20190;-78
2023/03/04 04:31:12;;;;;;;0.50;0.40;;;5.10;99.90;;;;;;5054884;28;20186;-78
2023/03/04 04:33:39;;;;;;;0.50;0.40;;;5.10;99.90;;;;;;5054716;28;20222;-79
2023/03/04 04:36:07;;;;;;;0.50;0.40;;;5.10;99.90;;;;;;5054206;28;20201;-79
2023/03/04 04:38:34;;;;;;;0.50;0.40;;;5.10;99.90;;;;;;5054578;28;20195;-78
2023/03/04 04:41:01;;;;;;;0.50;0.40;;;5.10;99.90;;;;;;5054449;28;20210;-79
2023/03/04 04:43:28;;;;;;;0.50;0.47;;;5.10;99.90;;;;;;5054634;28;20210;-78
2023/03/04 04:46:00;;;;;;;0.50;0.40;;;5.00;99.90;;;;;;5054627;28;20205;-77
2023/03/04 04:48:27;;;;;;;0.50;0.40;;;5.10;99.90;;;;;;5054290;28;20194;-78
2023/03/04 04:50:56;;;;;;;0.50;0.40;;;5.10;99.90;;;;;;5055284;28;20578;-77
2023/03/04 04:53:23;;;;;;;0.50;0.40;;;5.00;99.90;;;;;;5054339;28;20321;-78
2023/03/04 04:55:50;;;;;;;0.50;0.40;;;5.00;99.90;;;;;;5053214;28;20305;-77
2023/03/04 04:58:17;;;;;;;0.50;0.40;;;5.00;99.90;;;;;;5053615;28;20191;-79
2023/03/04 05:00:44;;;;;;;0.50;0.40;;;5.00;99.90;;;;;;5054450;28;20221;-79
2023/03/04 05:03:12;;;;;;;0.60;0.60;;;5.10;99.90;;;;;;5054273;28;20217;-79
2023/03/04 05:05:39;;;;;;;0.70;0.50;;;5.10;99.90;;;;;;5053633;28;20198;-80
2023/03/04 05:08:06;;;;;;;0.50;0.40;;;5.00;99.90;;;;;;5053788;28;20209;-79
2023/03/04 05:10:32;;;;;;;0.50;0.40;;;5.00;99.90;;;;;;5053630;28;20230;-78
2023/03/04 05:12:59;;;;;;;0.50;0.40;;;5.00;99.90;;;;;;5053449;28;20246;-79
2023/03/04 05:15:26;;;;;;;0.50;0.40;;;5.00;99.90;;;;;;5053426;28;20289;-78
2023/03/04 05:17:53;;;;;;;0.50;0.40;;;5.00;99.90;;;;;;5055268;28;20199;-79
2023/03/04 05:20:22;;;;;;;0.50;0.40;;;5.00;99.90;;;;;;5053891;28;20728;-80
2023/03/04 05:22:49;;;;;;;0.50;0.40;;;5.00;99.90;;;;;;5052379;28;20264;-79
2023/03/04 05:25:16;;;;;;;0.50;0.40;;;5.00;99.90;;;;;;5053378;28;20190;-78
2023/03/04 05:27:43;;;;;;;0.50;0.40;;;5.10;99.90;;;;;;5053244;28;20204;-78
2023/03/04 05:30:11;;;;;;;0.50;0.50;;;5.00;99.90;;;;;;5053164;28;20201;-78
2023/03/04 05:32:38;;;;;;;0.50;0.40;;;5.00;99.90;;;;;;5053052;28;20194;-78
2023/03/04 05:35:06;;;;;;;0.50;0.40;;;5.00;99.90;;;;;;5053634;28;20198;-79
2023/03/04 05:37:34;;;;;;;0.50;0.40;;;5.00;99.90;;;;;;5053216;28;20191;-78
2023/03/04 05:40:01;;;;;;;0.50;0.40;;;5.00;99.90;;;;;;5053324;28;20581;-79
2023/03/04 05:42:27;;;;;;;0.50;0.40;;;5.10;99.90;;;;;;5053267;28;20194;-78
2023/03/04 05:44:54;;;;;;;0.50;0.40;;;5.10;99.90;;;;;;5053152;28;20194;-78
2023/03/04 05:47:21;;;;;;;0.57;0.55;;;5.10;99.90;;;;;;5053125;28;20621;-79
2023/03/04 05:49:48;;;;;;;0.50;0.50;;;5.10;99.90;;;;;;5052237;28;20187;-76
2023/03/04 05:52:15;;;;;;;0.50;0.40;;;5.10;99.90;;;;;;5053019;28;20190;-79
2023/03/04 05:54:43;;;;;;;0.50;0.40;;;5.00;99.90;;;;;;5052225;28;20281;-79
2023/03/04 05:57:10;;;;;;;0.50;0.40;;;5.00;99.90;;;;;;5052489;28;20190;-79
2023/03/04 05:59:36;;;;;;;0.50;0.40;;;5.00;99.90;;;;;;5053042;28;20191;-78
2023/03/04 06:02:03;;;;;;;0.50;0.40;;;5.00;99.90;;;;;;5052170;28;20251;-78
2023/03/04 06:04:30;;;;;;;0.50;0.40;;;5.00;99.90;;;;;;5053267;28;20214;-77
2023/03/04 06:06:57;;;;;;;0.50;0.40;;;5.00;99.90;;;;;;5052200;28;20191;-77
2023/03/04 06:09:24;;;;;;;0.50;0.40;;;5.00;99.90;;;;;;5052258;28;20566;-79
2023/03/04 06:11:52;;;;;;;0.95;0.95;;;5.00;99.90;;;;;;5056635;28;20194;-80
2023/03/04 06:14:19;;;;;;;0.50;0.40;;;5.00;99.90;;;;;;5057168;28;20278;-79
2023/03/04 06:16:46;;;;;;;0.50;0.40;;;5.00;99.90;;;;;;5056747;28;20680;-78
2023/03/04 06:19:12;;;;;;;0.50;0.40;;;5.00;99.90;;;;;;5057406;28;20222;-80
2023/03/04 06:21:39;;;;;;;0.50;0.40;;;5.00;99.90;;;;;;5056236;28;20910;-78
2023/03/04 06:24:06;;;;;;;0.50;0.40;;;5.00;99.90;;;;;;5056674;28;20228;-80
2023/03/04 06:26:33;;;;;;;0.50;0.40;;;5.10;99.90;;;;;;5055943;28;20278;-78
2023/03/04 06:29:01;;;;;;;0.50;0.40;;;5.10;99.90;;;;;;5056455;28;20669;-79
2023/03/04 06:31:28;;;;;;;0.50;0.40;;;5.10;99.90;;;;;;5056211;28;20226;-79
2023/03/04 06:33:55;;;;;;;0.50;0.40;;;5.10;99.90;;;;;;5056401;28;20224;-78
2023/03/04 06:36:22;;;;;;;0.50;0.50;;;5.10;99.90;;;;;;5059960;28;20194;-80
2023/03/04 06:38:49;;;;;;;0.50;0.40;;;5.10;99.90;;;;;;5059691;28;20233;-80
2023/03/04 06:41:17;;;;;;;0.50;0.40;;;5.10;99.90;;;;;;5059698;28;20214;-81
2023/03/04 06:43:44;;;;;;;0.50;0.40;;;5.10;99.90;;;;;;5060972;28;20322;-80
2023/03/04 06:46:12;;;;;;;0.50;0.40;;;5.20;99.90;;;;;;5059370;28;20203;-79
2023/03/04 06:48:39;;;;;;;1.40;1.40;;;5.20;99.90;;;;;;5058441;28;20198;-80
2023/03/04 06:51:07;;;;;;;0.50;0.40;;;5.20;99.90;;;;;;5059624;28;20194;-80
2023/03/04 06:53:34;;;;;;;0.50;0.40;;;5.20;99.90;;;;;;5059744;28;20210;-80
2023/03/04 06:56:00;;;;;;;0.50;0.40;;;5.20;99.90;;;;;;5058341;28;20674;-78
2023/03/04 06:58:27;;;;;;;0.50;0.40;;;5.30;99.90;;;;;;5057109;28;20286;-78
2023/03/04 07:00:54;;;;;;;0.50;0.40;;;5.30;99.90;;;;;;5057354;28;20215;-78
2023/03/04 07:03:23;;;;;;;1.48;0.70;;;5.30;99.90;;;;;;5058601;28;20706;-78
2023/03/04 07:05:50;;;;;;;0.50;0.40;;;5.20;99.90;;;;;;5058468;28;20194;-78
2023/03/04 07:08:17;;;;;;;0.50;0.40;;;5.20;99.90;;;;;;5059514;28;20214;-77
2023/03/04 07:10:43;;;;;;;0.50;0.40;;;5.30;99.90;;;;;;5059653;28;20613;-80
2023/03/04 07:13:10;;;;;;;0.50;0.40;;;5.30;99.90;;;;;;5059471;28;20223;-80
2023/03/04 07:15:37;;;;;;;0.50;0.40;;;5.30;99.90;;;;;;5059525;28;20316;-79
2023/03/04 07:18:04;;;;;;;0.50;0.40;;;5.40;99.90;;;;;;5059816;28;20281;-79
2023/03/04 07:20:33;;;;;;;0.50;0.40;;;5.40;99.90;;;;;;5059517;28;20301;-80
2023/03/04 07:22:59;;;;;;;1.23;1.23;;;5.40;99.90;;;;;;5059110;28;20327;-79
2023/03/04 07:25:26;;;;;;;0.50;0.40;;;5.40;99.90;;;;;;5059676;28;20190;-80
2023/03/04 07:27:53;;;;;;;0.50;0.40;;;5.40;99.90;;;;;;5060076;28;20293;-80
2023/03/04 07:30:20;;;;;;;0.50;0.40;;;5.30;99.90;;;;;;5056307;28;20214;-79
2023/03/04 07:32:47;;;;;;;0.50;0.50;;;5.30;99.90;;;;;;5057251;28;20225;-78
2023/03/04 07:35:14;;;;;;;0.50;0.40;;;5.30;99.90;;;;;;5056831;28;20288;-79
2023/03/04 07:37:42;;;;;;;0.50;0.40;;;5.30;99.90;;;;;;5057214;28;20224;-81
2023/03/04 07:40:10;;;;;;;0.50;0.40;;;5.40;99.90;;;;;;5058718;28;20195;-79
2023/03/04 07:42:37;;;;;;;0.50;0.40;;;5.40;99.90;;;;;;5059138;28;20286;-79
2023/03/04 07:45:06;;;;;;;0.50;0.40;;;5.40;99.90;;;;;;5064314;28;20206;-80
2023/03/04 07:47:33;;;;;;;0.50;0.40;;;5.40;99.90;;;;;;5070232;28;20195;-77
2023/03/04 07:50:00;;;;;;;0.50;0.40;;;5.40;99.90;;;;;;5063839;28;20614;-80
2023/03/04 07:52:27;;;;;;;0.50;0.40;;;5.50;99.90;;;;;;5060831;28;20187;-80
2023/03/04 07:54:55;;;;;;;0.50;0.40;;;5.70;99.90;;;;;;5058928;28;20225;-78
2023/03/04 07:57:22;;;;;;;0.73;0.50;;;5.90;99.90;;;;;;5056761;28;20234;-77
2023/03/04 07:59:49;;;;;;;0.50;0.40;;;6.10;99.90;;;;;;5059669;28;20222;-78
2023/03/04 08:02:15;;;;;;;0.70;0.70;;;6.30;99.90;;;;;;5059167;28;20215;-80
2023/03/04 08:04:42;;;;;;;0.50;0.40;;;6.70;99.90;;;;;;5058589;28;20241;-79
2023/03/04 08:07:09;;;;;;;0.50;0.50;;;6.90;99.90;;;;;;5058709;28;20191;-80
2023/03/04 08:09:36;;;;;;;0.50;0.40;;;7.00;99.90;;;;;;5059205;28;20203;-76
2023/03/04 08:12:04;;;;;;;14.50;1.17;;;7.20;99.90;;;;;;5058402;28;20584;-78
2023/03/04 08:14:31;;;;;;;0.50;0.40;;;7.40;99.90;;;;;;5057010;28;20217;-79
2023/03/04 08:16:58;;;;;;;0.50;0.40;;;7.90;99.90;;;;;;5057522;28;20193;-78
2023/03/04 08:19:25;;;;;;;0.50;0.50;;;8.60;99.90;;;;;;5059177;28;20569;-80
2023/03/04 08:21:51;;;;;;;0.50;0.40;;;9.30;99.90;;;;;;5058644;28;20207;-79
2023/03/04 08:24:18;;;;;;;0.50;0.40;;;10.00;99.90;;;;;;5056573;28;20220;-79
2023/03/04 08:26:48;;;;;;;0.50;0.40;;;10.60;99.90;;;;;;5055182;28;20194;-79
2023/03/04 08:29:19;;;;;;;0.50;0.40;;;10.50;99.90;;;;;;5056892;28;20201;-78
2023/03/04 08:31:46;;;;;;;0.50;0.40;;;9.90;99.90;;;;;;5056771;28;20194;-78
2023/03/04 08:34:14;;;;;;;1.45;1.35;;;9.40;99.90;;;;;;5057470;28;20215;-80
2023/03/04 08:36:42;;;;;;;1.05;0.60;;;8.90;99.90;;;;;;5057028;28;20208;-79
2023/03/04 08:39:11;;;;;;;0.50;0.40;;;8.30;99.90;;;;;;5054761;28;20190;-78
2023/03/04 08:41:38;;;;;;;0.50;0.40;;;8.00;99.90;;;;;;5055839;28;20301;-76
2023/03/04 08:44:07;;;;;;;0.50;0.43;;;7.90;99.90;;;;;;5056032;28;20277;-79
2023/03/04 08:46:35;;;;;;;0.50;0.40;;;8.00;99.90;;;;;;5058464;28;20195;-77
2023/03/04 08:49:02;;;;;;;0.90;0.80;;;8.00;99.90;;;;;;5057039;28;20256;-78
2023/03/04 08:51:29;;;;;;;0.50;0.40;;;7.80;99.90;;;;;;5056654;28;20193;-78
2023/03/04 08:53:56;;;;;;;0.82;0.80;;;7.50;99.90;;;;;;5057052;28;20286;-79
2023/03/04 08:56:23;;;;;;;0.50;0.40;;;7.50;99.90;;;;;;5057343;28;20215;-79
2023/03/04 08:58:50;;;;;;;0.50;0.50;;;7.40;99.90;;;;;;5057550;28;20259;-79
2023/03/04 09:01:16;;;;;;;0.50;0.40;;;7.30;99.90;;;;;;5057996;28;20214;-80
2023/03/04 09:03:45;;;;;;;0.50;0.40;;;7.20;99.90;;;;;;5058128;28;20701;-80
2023/03/04 09:06:15;;;;;;;0.50;0.40;;;7.10;99.90;;;;;;5057749;28;20277;-80
2023/03/04 09:08:42;;;;;;;0.50;0.40;;;7.00;99.90;;;;;;5058339;28;20198;-80
2023/03/04 09:11:09;;;;;;;2.17;0.80;;;7.00;99.90;;;;;;5058389;28;20716;-79
2023/03/04 09:13:37;;;;;;;0.50;0.40;;;7.10;99.90;;;;;;5057878;28;20227;-81
2023/03/04 09:16:08;;;;;;;0.73;0.73;;;7.10;99.90;;;;;;5058191;28;20284;-79
2023/03/04 09:18:35;;;;;;;1.10;1.10;;;7.10;99.90;;;;;;5058212;28;20205;-76
2023/03/04 09:21:03;;;;;;;1.25;1.25;;;7.30;99.90;;;;;;5059486;28;20306;-79
2023/03/04 09:23:30;;;;;;;0.60;0.60;;;7.50;99.90;;;;;;5058819;28;20297;-79
2023/03/04 09:25:57;;;;;;;1.58;1.58;;;7.50;99.90;;;;;;5058363;28;20266;-80
2023/03/04 09:28:23;;;;;;;0.50;0.40;;;7.60;99.90;;;;;;5058327;28;20195;-79
2023/03/04 09:30:50;;;;;;;1.33;1.23;;;7.40;99.90;;;;;;5058215;28;20241;-80
2023/03/04 09:33:18;;;;;;;0.70;0.70;;;7.30;99.90;;;;;;5057661;28;20245;-80
2023/03/04 09:35:47;;;;;;;0.50;0.40;;;7.40;99.90;;;;;;5058250;28;20207;-79
2023/03/04 09:38:15;;;;;;;0.50;0.50;;;7.50;99.90;;;;;;5057852;28;20200;-80
2023/03/04 09:40:45;;;;;;;1.08;0.98;;;7.70;99.90;;;;;;5058551;28;20221;-79
2023/03/04 09:43:19;;;;;;;0.50;0.40;;;7.80;99.90;;;;;;5058212;28;20218;-80
2023/03/04 09:45:50;;;;;;;0.60;0.60;;;8.10;99.90;;;;;;5058926;28;20214;-80
2023/03/04 09:48:21;;;;;;;0.50;0.40;;;8.60;99.90;;;;;;5057602;28;20674;-80
2023/03/04 09:50:59;;;;;;;0.68;0.68;;;9.00;99.90;;;;;;5058225;28;20191;-80
2023/03/04 09:53:35;;;;;;;0.60;0.60;;;9.20;99.90;;;;;;5058508;28;20240;-79
2023/03/04 09:56:03;;;;;;;0.50;0.50;;;9.40;99.90;;;;;;5056391;28;20749;-77
2023/03/04 09:58:43;;;;;;;0.60;0.60;;;9.50;99.90;;;;;;5056563;28;20202;-80
2023/03/04 10:01:16;;;;;;;0.50;0.40;;;9.90;99.90;;;;;;5063871;28;20230;-80
2023/03/04 10:03:48;;;;;;;0.50;0.40;;;9.90;99.90;;;;;;5071156;28;20253;-80
2023/03/04 10:06:18;;;;;;;0.70;0.70;;;10.00;99.90;;;;;;5062174;28;20198;-80
2023/03/04 10:08:52;;;;;;;3.45;0.95;;;9.90;99.90;;;;;;5060537;28;20198;-80
2023/03/04 10:11:26;;;;;;;0.50;0.40;;;9.70;99.90;;;;;;5063587;28;20185;-81
2023/03/04 10:14:00;;;;;;;2.15;1.95;;;9.60;99.90;;;;;;5062613;28;20230;-80
2023/03/04 10:16:32;;;;;;;0.50;0.40;;;9.90;99.90;;;;;;5062608;28;20204;-79
2023/03/04 10:19:03;;;;;;;0.50;0.43;;;10.10;99.90;;;;;;5061844;28;20273;-80
2023/03/04 10:21:36;;;;;;;0.50;0.40;;;10.50;99.90;;;;;;5061825;28;20303;-80
2023/03/04 10:24:12;;;;;;;0.50;0.40;;;10.60;99.90;;;;;;5062707;28;20218;-79
2023/03/04 10:26:39;;;;;;;0.80;0.80;;;10.60;99.90;;;;;;5055176;28;20197;-79
2023/03/04 10:29:08;;;;;;;0.60;0.60;;;10.10;99.90;;;;;;5061519;28;20191;-80
2023/03/04 10:31:37;;;;;;;0.50;0.40;;;9.70;99.90;;;;;;5061901;28;20216;-80
2023/03/04 10:34:04;;;;;;;1.08;0.98;;;9.40;99.90;;;;;;5062182;28;20237;-80
2023/03/04 10:36:43;;;;;;;0.50;0.40;;;9.20;99.90;;;;;;5061958;28;20194;-80
2023/03/04 10:39:19;;;;;;;0.50;0.40;;;8.90;99.90;;;;;;5061935;28;20226;-79
2023/03/04 10:41:54;;;;;;;0.50;0.40;;;8.80;99.90;;;;;;5061476;28;20218;-80
2023/03/04 10:44:22;;;;;;;0.50;0.40;;;8.70;99.90;;;;;;5061146;28;20728;-80
2023/03/04 10:46:50;;;;;;;0.70;0.60;;;8.90;99.90;;;;;;5061494;28;20277;-79
2023/03/04 10:49:18;;;;;;;0.50;0.40;;;9.30;99.90;;;;;;5061416;28;20237;-80
2023/03/04 10:51:48;;;;;;;0.50;0.40;;;9.30;99.90;;;;;;5061671;28;20277;-80
2023/03/04 10:54:28;;;;;;;0.50;0.40;;;9.60;99.90;;;;;;5060492;28;20214;-79
2023/03/04 10:57:00;;;;;;;0.50;0.40;;;9.70;99.90;;;;;;5060702;28;20194;-79
2023/03/04 10:59:55;;;;;;;0.50;0.40;;;9.70;99.90;;;;;;5061224;28;20332;-80
2023/03/04 11:02:25;;;;;;;0.50;0.40;;;9.90;99.90;;;;;;5060805;28;20292;-79
2023/03/04 11:04:55;;;;;;;0.50;0.40;;;9.90;99.90;;;;;;5060293;28;20198;-79
2023/03/04 11:07:23;;;;;;;0.98;0.98;;;9.80;99.90;;;;;;5059884;28;20289;-77
2023/03/04 11:09:51;;;;;;;0.50;0.40;;;9.60;99.90;;;;;;5060468;28;20213;-79
2023/03/04 11:12:21;;;;;;;5.97;0.73;;;9.70;99.90;;;;;;5060442;28;20539;-80
2023/03/04 11:14:50;;;;;;;0.50;0.40;;;9.80;99.90;;;;;;5062189;28;20217;-79
2023/03/04 11:17:23;;;;;;;0.50;0.40;;;9.60;99.90;;;;;;5061738;28;20205;-80
2023/03/04 11:19:55;;;;;;;0.50;0.40;;;9.40;99.90;;;;;;5060553;28;20191;-79
2023/03/04 11:22:24;;;;;;;0.50;0.40;;;9.50;99.90;;;;;;5061161;28;20217;-79
2023/03/04 11:24:59;;;;;;;0.50;0.40;;;9.80;99.90;;;;;;5061648;28;20301;-78
2023/03/04 11:27:36;;;;;;;0.50;0.40;;;10.50;99.90;;;;;;5061868;28;20202;-79
2023/03/04 11:30:19;;;;;;;0.50;0.40;;;11.10;99.90;;;;;;5061536;28;20293;-80
2023/03/04 11:32:49;;;;;;;0.50;0.40;;;11.30;99.90;;;;;;5055189;28;20277;-79
2023/03/04 11:35:23;;;;;;;0.50;0.40;;;11.40;99.90;;;;;;5059900;28;20689;-80
2023/03/04 11:37:57;;;;;;;0.70;0.63;;;11.30;99.90;;;;;;5061202;28;20245;-80
2023/03/04 11:40:33;;;;;;;0.50;0.40;;;10.90;99.90;;;;;;5062616;28;20245;-79
2023/03/04 11:43:06;;;;;;;0.50;0.40;;;10.50;99.90;;;;;;5061442;28;20218;-79
2023/03/04 11:45:51;;;;;;;0.68;0.60;;;10.20;99.90;;;;;;5061274;28;20191;-76
2023/03/04 11:48:26;;;;;;;0.50;0.40;;;10.00;99.90;;;;;;5060966;28;20195;-80
2023/03/04 11:50:57;;;;;;;0.50;0.40;;;9.80;99.90;;;;;;5060580;28;20216;-81
2023/03/04 11:53:49;;;;;;;0.50;0.40;;;9.50;99.90;;;;;;5060734;28;20676;-81
2023/03/04 11:56:26;;;;;;;0.50;0.40;;;9.40;99.90;;;;;;5058023;28;20202;-78
2023/03/04 11:59:16;;;;;;;0.60;0.60;;;9.20;99.90;;;;;;5056854;28;20281;-79
2023/03/04 12:01:49;;;;;;;1.75;0.98;;;9.00;99.90;;;;;;5058736;28;20221;-79
2023/03/04 12:04:29;;;;;;;0.60;0.60;;;8.90;99.90;;;;;;5059893;28;20217;-79
2023/03/04 12:07:12;;;;;;;0.50;0.40;;;8.70;99.90;;;;;;5059960;28;20201;-79
2023/03/04 12:09:52;;;;;;;0.50;0.40;;;8.70;99.90;;;;;;5056415;28;20612;-78
2023/03/04 12:12:35;;;;;;;0.50;0.40;;;8.70;99.90;;;;;;5056827;28;20201;-78
2023/03/04 12:15:14;;;;;;;0.50;0.40;;;8.70;99.90;;;;;;5057376;28;20565;-78
2023/03/04 12:18:08;;;;;;;0.50;0.40;;;8.80;99.90;;;;;;5061596;28;20197;-78
2023/03/04 12:20:50;;;;;;;0.50;0.40;;;9.00;99.90;;;;;;5057191;28;20226;-79
2023/03/04 12:23:33;;;;;;;0.50;0.40;;;9.10;99.90;;;;;;5060640;28;20278;-80
2023/03/04 12:26:07;;;;;;;0.50;0.40;;;9.10;99.90;;;;;;5059419;28;20643;-79
2023/03/04 12:28:46;;;;;;;0.50;0.40;;;9.10;99.90;;;;;;5058463;28;20280;-79
2023/03/04 12:31:37;;;;;;;0.50;0.40;;;9.20;99.90;;;;;;5059647;28;20278;-80
2023/03/04 12:34:36;;;;;;;0.50;0.40;;;9.10;99.90;;;;;;5059661;28;20226;-80
2023/03/04 12:37:27;;;;;;;0.50;0.40;;;9.00;99.90;;;;;;5052851;28;20194;-80
2023/03/04 12:40:12;;;;;;;0.50;0.40;;;9.00;99.90;;;;;;5058996;28;20215;-79
2023/03/04 12:42:50;;;;;;;21.60;2.35;;;8.90;99.90;;;;;;5058876;28;20249;-80
2023/03/04 12:45:25;;;;;;;0.50;0.43;;;8.70;99.90;;;;;;5059991;28;20198;-80
2023/03/04 12:48:02;;;;;;;0.50;0.40;;;8.50;99.90;;;;;;5059384;28;20198;-80
2023/03/04 12:50:37;;;;;;;0.50;0.40;;;8.30;99.90;;;;;;5059721;28;20225;-80
2023/03/04 12:53:16;;;;;;;2.55;1.25;;;8.10;99.90;;;;;;5059002;28;20225;-80
2023/03/04 12:55:45;;;;;;;0.50;0.40;;;7.80;99.90;;;;;;5051495;28;20252;-79
2023/03/04 12:58:16;;;;;;;0.50;0.40;;;7.80;99.90;;;;;;5059200;28;20680;-79
2023/03/04 13:00:57;;;;;;;0.50;0.40;;;7.70;99.90;;;;;;5050724;28;20280;-79
2023/03/04 13:03:34;;;;;;;0.50;0.40;;;7.70;99.90;;;;;;5057645;28;20214;-79
2023/03/04 13:06:12;;;;;;;1.08;0.60;;;7.80;99.90;;;;;;5059406;28;20262;-80
2023/03/04 13:08:56;;;;;;;0.60;0.50;;;7.80;99.90;;;;;;5049684;28;20205;-80